sensor_id;sensor_type;location;lat;lon;timestamp;temperature;humidity
17938;DHT22;16051;53.024;8.630;2022-12-07T00:00:30;5.10;99.90
17938;DHT22;16051;53.024;8.630;2022-12-07T00:04:32;5.00;99.90
17938;DHT22;16051;53.024;8.630;2022-12-07T00:08:35;4.90;99.90
17938;DHT22;16051;53.024;8.630;2022-12-07T00:13:08;4.90;99.90
17938;DHT22;16051;53.024;8.630;2022-12-07T00:17:15;4.80;99.90
17938;DHT22;16051;53.024;8.630;2022-12-07T00:21:18;4.70;99.90
17938;DHT22;16051;53.024;8.630;2022-12-07T00:25:21;4.70;99.90
17938;DHT22;16051;53.024;8.630;2022-12-07T00:29:23;4.70;99.90
17938;DHT22;16051;53.024;8.630;2022-12-07T00:33:27;4.60;99.90
17938;DHT22;16051;53.024;8.630;2022-12-07T00:37:30;4.60;99.90
17938;DHT22;16051;53.024;8.630;2022-12-07T00:41:32;4.60;99.90
17938;DHT22;16051;53.024;8.630;2022-12-07T00:45:48;4.60;99.90
17938;DHT22;16051;53.024;8.630;2022-12-07T00:49:52;4.70;99.90
17938;DHT22;16051;53.024;8.630;2022-12-07T00:53:54;4.70;99.90
17938;DHT22;16051;53.024;8.630;2022-12-07T00:57:56;4.70;99.90
17938;DHT22;16051;53.024;8.630;2022-12-07T01:01:58;4.70;99.90
17938;DHT22;16051;53.024;8.630;2022-12-07T01:06:08;4.70;99.90
17938;DHT22;16051;53.024;8.630;2022-12-07T01:10:10;4.60;99.90
17938;DHT22;16051;53.024;8.630;2022-12-07T01:14:13;4.60;99.90
17938;DHT22;16051;53.024;8.630;2022-12-07T01:18:15;4.70;99.90
17938;DHT22;16051;53.024;8.630;2022-12-07T01:22:19;4.60;99.90
17938;DHT22;16051;53.024;8.630;2022-12-07T01:26:22;4.60;99.90
17938;DHT22;16051;53.024;8.630;2022-12-07T01:30:25;4.60;99.90
17938;DHT22;16051;53.024;8.630;2022-12-07T01:34:27;4.60;99.90
17938;DHT22;16051;53.024;8.630;2022-12-07T01:38:31;4.60;99.90
17938;DHT22;16051;53.024;8.630;2022-12-07T01:42:34;4.50;99.90
17938;DHT22;16051;53.024;8.630;2022-12-07T01:46:36;4.50;99.90
17938;DHT22;16051;53.024;8.630;2022-12-07T01:50:40;4.50;99.90
17938;DHT22;16051;53.024;8.630;2022-12-07T01:54:47;4.40;99.90
17938;DHT22;16051;53.024;8.630;2022-12-07T01:58:56;4.40;99.90
17938;DHT22;16051;53.024;8.630;2022-12-07T02:03:05;4.40;99.90
17938;DHT22;16051;53.024;8.630;2022-12-07T02:07:11;4.30;99.90
17938;DHT22;16051;53.024;8.630;2022-12-07T02:11:16;4.20;99.90
17938;DHT22;16051;53.024;8.630;2022-12-07T02:15:20;4.20;99.90
17938;DHT22;16051;53.024;8.630;2022-12-07T02:24:24;4.20;99.90
17938;DHT22;16051;53.024;8.630;2022-12-07T02:28:53;4.20;99.90
17938;DHT22;16051;53.024;8.630;2022-12-07T02:33:13;4.10;99.90
17938;DHT22;16051;53.024;8.630;2022-12-07T02:37:27;4.10;99.90
17938;DHT22;16051;53.024;8.630;2022-12-07T02:41:42;4.10;99.90
17938;DHT22;16051;53.024;8.630;2022-12-07T02:46:08;4.00;99.90
17938;DHT22;16051;53.024;8.630;2022-12-07T02:50:32;4.10;99.90
17938;DHT22;16051;53.024;8.630;2022-12-07T02:54:35;4.10;99.90
17938;DHT22;16051;53.024;8.630;2022-12-07T02:58:46;4.10;99.90
17938;DHT22;16051;53.024;8.630;2022-12-07T03:03:00;4.20;99.90
17938;DHT22;16051;53.024;8.630;2022-12-07T03:07:14;4.20;99.90
17938;DHT22;16051;53.024;8.630;2022-12-07T03:11:29;4.30;99.90
17938;DHT22;16051;53.024;8.630;2022-12-07T03:15:43;4.40;99.90
17938;DHT22;16051;53.024;8.630;2022-12-07T03:19:57;4.40;99.90
17938;DHT22;16051;53.024;8.630;2022-12-07T03:24:08;4.30;99.90
17938;DHT22;16051;53.024;8.630;2022-12-07T03:28:17;4.40;99.90
17938;DHT22;16051;53.024;8.630;2022-12-07T03:32:24;4.40;99.90
17938;DHT22;16051;53.024;8.630;2022-12-07T03:36:41;4.40;99.90
17938;DHT22;16051;53.024;8.630;2022-12-07T03:40:52;4.40;99.90
17938;DHT22;16051;53.024;8.630;2022-12-07T03:45:02;4.40;99.90
17938;DHT22;16051;53.024;8.630;2022-12-07T03:49:08;4.30;99.90
17938;DHT22;16051;53.024;8.630;2022-12-07T03:53:22;4.30;99.90
17938;DHT22;16051;53.024;8.630;2022-12-07T03:57:30;4.30;99.90
17938;DHT22;16051;53.024;8.630;2022-12-07T04:01:34;4.30;99.90
17938;DHT22;16051;53.024;8.630;2022-12-07T04:05:42;4.30;99.90
17938;DHT22;16051;53.024;8.630;2022-12-07T04:09:47;4.30;99.90
17938;DHT22;16051;53.024;8.630;2022-12-07T04:13:49;4.30;99.90
17938;DHT22;16051;53.024;8.630;2022-12-07T04:18:08;4.30;99.90
17938;DHT22;16051;53.024;8.630;2022-12-07T04:22:10;4.30;99.90
17938;DHT22;16051;53.024;8.630;2022-12-07T04:26:14;4.20;99.90
17938;DHT22;16051;53.024;8.630;2022-12-07T04:30:16;4.20;99.90
17938;DHT22;16051;53.024;8.630;2022-12-07T04:34:19;4.10;99.90
17938;DHT22;16051;53.024;8.630;2022-12-07T04:38:37;4.10;99.90
17938;DHT22;16051;53.024;8.630;2022-12-07T04:42:41;4.00;99.90
17938;DHT22;16051;53.024;8.630;2022-12-07T04:46:43;4.00;99.90
17938;DHT22;16051;53.024;8.630;2022-12-07T04:50:48;4.00;99.90
17938;DHT22;16051;53.024;8.630;2022-12-07T04:54:50;4.00;99.90
17938;DHT22;16051;53.024;8.630;2022-12-07T04:58:54;4.00;99.90
17938;DHT22;16051;53.024;8.630;2022-12-07T05:02:56;4.00;99.90
17938;DHT22;16051;53.024;8.630;2022-12-07T05:06:58;4.00;99.90
17938;DHT22;16051;53.024;8.630;2022-12-07T05:11:08;4.00;99.90
17938;DHT22;16051;53.024;8.630;2022-12-07T05:15:32;4.10;99.90
17938;DHT22;16051;53.024;8.630;2022-12-07T05:19:35;4.10;99.90
17938;DHT22;16051;53.024;8.630;2022-12-07T05:23:37;4.10;99.90
17938;DHT22;16051;53.024;8.630;2022-12-07T05:27:39;4.10;99.90
17938;DHT22;16051;53.024;8.630;2022-12-07T05:31:43;4.00;99.90
17938;DHT22;16051;53.024;8.630;2022-12-07T05:35:46;4.00;99.90
17938;DHT22;16051;53.024;8.630;2022-12-07T05:39:49;4.00;99.90
17938;DHT22;16051;53.024;8.630;2022-12-07T05:43:51;3.90;99.90
17938;DHT22;16051;53.024;8.630;2022-12-07T05:47:54;3.80;99.90
17938;DHT22;16051;53.024;8.630;2022-12-07T05:51:57;3.70;99.90
17938;DHT22;16051;53.024;8.630;2022-12-07T05:56:00;3.70;99.90
17938;DHT22;16051;53.024;8.630;2022-12-07T06:00:04;3.60;99.90
17938;DHT22;16051;53.024;8.630;2022-12-07T06:04:08;3.60;99.90
17938;DHT22;16051;53.024;8.630;2022-12-07T06:08:10;3.70;99.90
17938;DHT22;16051;53.024;8.630;2022-12-07T06:16:46;3.70;99.90
17938;DHT22;16051;53.024;8.630;2022-12-07T06:20:50;3.70;99.90
17938;DHT22;16051;53.024;8.630;2022-12-07T06:24:52;3.70;99.90
17938;DHT22;16051;53.024;8.630;2022-12-07T06:28:55;3.80;99.90
17938;DHT22;16051;53.024;8.630;2022-12-07T06:32:57;3.80;99.90
17938;DHT22;16051;53.024;8.630;2022-12-07T06:37:29;3.80;99.90
17938;DHT22;16051;53.024;8.630;2022-12-07T06:41:32;3.80;99.90
17938;DHT22;16051;53.024;8.630;2022-12-07T06:45:34;3.90;99.90
17938;DHT22;16051;53.024;8.630;2022-12-07T06:49:36;3.90;99.90
17938;DHT22;16051;53.024;8.630;2022-12-07T06:54:05;3.90;99.90
17938;DHT22;16051;53.024;8.630;2022-12-07T06:58:07;3.90;99.90
17938;DHT22;16051;53.024;8.630;2022-12-07T07:02:09;4.00;99.90
17938;DHT22;16051;53.024;8.630;2022-12-07T07:06:12;3.90;99.90
17938;DHT22;16051;53.024;8.630;2022-12-07T07:10:17;4.00;99.90
17938;DHT22;16051;53.024;8.630;2022-12-07T07:14:22;4.00;99.90
17938;DHT22;16051;53.024;8.630;2022-12-07T07:18:24;4.00;99.90
17938;DHT22;16051;53.024;8.630;2022-12-07T07:22:31;4.00;99.90
17938;DHT22;16051;53.024;8.630;2022-12-07T07:26:34;4.00;99.90
17938;DHT22;16051;53.024;8.630;2022-12-07T07:30:36;4.10;99.90
17938;DHT22;16051;53.024;8.630;2022-12-07T07:34:39;4.10;99.90
17938;DHT22;16051;53.024;8.630;2022-12-07T07:38:41;4.80;99.90
17938;DHT22;16051;53.024;8.630;2022-12-07T07:42:47;6.00;99.90
17938;DHT22;16051;53.024;8.630;2022-12-07T07:46:55;5.20;99.90
17938;DHT22;16051;53.024;8.630;2022-12-07T07:50:59;4.70;99.90
17938;DHT22;16051;53.024;8.630;2022-12-07T07:55:04;4.40;99.90
17938;DHT22;16051;53.024;8.630;2022-12-07T07:59:10;4.30;99.90
17938;DHT22;16051;53.024;8.630;2022-12-07T08:03:12;4.30;99.90
17938;DHT22;16051;53.024;8.630;2022-12-07T08:07:21;4.30;99.90
17938;DHT22;16051;53.024;8.630;2022-12-07T08:15:42;4.40;99.90
17938;DHT22;16051;53.024;8.630;2022-12-07T08:19:45;4.40;99.90
17938;DHT22;16051;53.024;8.630;2022-12-07T08:23:57;4.50;99.90
17938;DHT22;16051;53.024;8.630;2022-12-07T08:27:59;4.50;99.90
17938;DHT22;16051;53.024;8.630;2022-12-07T08:32:03;4.50;99.90
17938;DHT22;16051;53.024;8.630;2022-12-07T08:36:08;4.60;99.90
17938;DHT22;16051;53.024;8.630;2022-12-07T08:40:13;4.60;99.90
17938;DHT22;16051;53.024;8.630;2022-12-07T08:44:16;4.60;99.90
17938;DHT22;16051;53.024;8.630;2022-12-07T08:48:20;4.60;99.90
17938;DHT22;16051;53.024;8.630;2022-12-07T08:52:24;4.60;99.90
17938;DHT22;16051;53.024;8.630;2022-12-07T08:56:27;4.70;99.90
17938;DHT22;16051;53.024;8.630;2022-12-07T09:00:38;4.70;99.90
17938;DHT22;16051;53.024;8.630;2022-12-07T09:04:41;4.70;99.90
17938;DHT22;16051;53.024;8.630;2022-12-07T09:08:46;4.80;99.90
17938;DHT22;16051;53.024;8.630;2022-12-07T09:12:51;4.80;99.90
17938;DHT22;16051;53.024;8.630;2022-12-07T09:16:53;4.80;99.90
17938;DHT22;16051;53.024;8.630;2022-12-07T09:20:57;4.80;99.90
17938;DHT22;16051;53.024;8.630;2022-12-07T09:25:00;4.80;99.90
17938;DHT22;16051;53.024;8.630;2022-12-07T09:29:03;4.90;99.90
17938;DHT22;16051;53.024;8.630;2022-12-07T09:33:05;4.90;99.90
17938;DHT22;16051;53.024;8.630;2022-12-07T09:37:08;5.00;99.90
17938;DHT22;16051;53.024;8.630;2022-12-07T09:41:39;5.10;99.90
17938;DHT22;16051;53.024;8.630;2022-12-07T09:45:44;5.10;99.90
17938;DHT22;16051;53.024;8.630;2022-12-07T09:49:49;5.10;99.90
17938;DHT22;16051;53.024;8.630;2022-12-07T09:53:54;5.20;99.90
17938;DHT22;16051;53.024;8.630;2022-12-07T09:57:59;5.20;99.90
17938;DHT22;16051;53.024;8.630;2022-12-07T10:02:24;5.30;99.90
17938;DHT22;16051;53.024;8.630;2022-12-07T10:06:47;5.30;99.90
17938;DHT22;16051;53.024;8.630;2022-12-07T10:10:54;5.30;99.90
17938;DHT22;16051;53.024;8.630;2022-12-07T10:15:01;5.40;99.90
17938;DHT22;16051;53.024;8.630;2022-12-07T10:19:22;5.40;99.90
17938;DHT22;16051;53.024;8.630;2022-12-07T10:23:26;5.40;99.90
17938;DHT22;16051;53.024;8.630;2022-12-07T10:27:32;5.40;99.90
17938;DHT22;16051;53.024;8.630;2022-12-07T10:31:38;5.60;99.90
17938;DHT22;16051;53.024;8.630;2022-12-07T10:35:43;5.80;99.90
17938;DHT22;16051;53.024;8.630;2022-12-07T10:39:47;5.80;99.90
17938;DHT22;16051;53.024;8.630;2022-12-07T10:43:53;5.90;99.90
17938;DHT22;16051;53.024;8.630;2022-12-07T10:48:03;5.90;99.90
17938;DHT22;16051;53.024;8.630;2022-12-07T10:52:18;5.90;99.90
17938;DHT22;16051;53.024;8.630;2022-12-07T10:56:52;6.00;99.90
17938;DHT22;16051;53.024;8.630;2022-12-07T11:01:12;6.10;99.90
17938;DHT22;16051;53.024;8.630;2022-12-07T11:05:24;6.20;99.90
17938;DHT22;16051;53.024;8.630;2022-12-07T11:09:46;6.20;99.90
17938;DHT22;16051;53.024;8.630;2022-12-07T11:14:03;6.20;99.90
17938;DHT22;16051;53.024;8.630;2022-12-07T11:18:20;6.20;99.90
17938;DHT22;16051;53.024;8.630;2022-12-07T11:22:35;6.20;99.90
17938;DHT22;16051;53.024;8.630;2022-12-07T11:26:55;6.30;99.90
17938;DHT22;16051;53.024;8.630;2022-12-07T11:31:13;6.40;99.90
17938;DHT22;16051;53.024;8.630;2022-12-07T11:35:38;6.40;99.90
17938;DHT22;16051;53.024;8.630;2022-12-07T11:40:11;6.30;99.90
17938;DHT22;16051;53.024;8.630;2022-12-07T11:44:26;6.40;99.90
17938;DHT22;16051;53.024;8.630;2022-12-07T11:48:38;6.60;99.90
17938;DHT22;16051;53.024;8.630;2022-12-07T11:52:50;6.70;99.90
17938;DHT22;16051;53.024;8.630;2022-12-07T11:56:59;6.80;99.90
17938;DHT22;16051;53.024;8.630;2022-12-07T12:01:14;6.80;99.90
17938;DHT22;16051;53.024;8.630;2022-12-07T12:05:26;6.90;99.90
17938;DHT22;16051;53.024;8.630;2022-12-07T12:09:34;6.90;99.90
17938;DHT22;16051;53.024;8.630;2022-12-07T12:14:11;6.90;99.90
17938;DHT22;16051;53.024;8.630;2022-12-07T12:18:38;6.90;99.90
17938;DHT22;16051;53.024;8.630;2022-12-07T12:22:53;7.00;99.90
17938;DHT22;16051;53.024;8.630;2022-12-07T12:27:05;7.00;99.90
17938;DHT22;16051;53.024;8.630;2022-12-07T12:31:13;7.00;99.90
17938;DHT22;16051;53.024;8.630;2022-12-07T12:35:28;7.00;99.90
17938;DHT22;16051;53.024;8.630;2022-12-07T12:39:32;7.00;99.90
17938;DHT22;16051;53.024;8.630;2022-12-07T12:43:47;7.00;99.90
17938;DHT22;16051;53.024;8.630;2022-12-07T12:47:57;7.00;99.90
17938;DHT22;16051;53.024;8.630;2022-12-07T12:52:01;7.00;99.90
17938;DHT22;16051;53.024;8.630;2022-12-07T12:56:43;7.00;99.90
17938;DHT22;16051;53.024;8.630;2022-12-07T13:05:46;7.00;99.90
17938;DHT22;16051;53.024;8.630;2022-12-07T13:09:49;7.10;99.90
17938;DHT22;16051;53.024;8.630;2022-12-07T13:13:51;7.10;99.90
17938;DHT22;16051;53.024;8.630;2022-12-07T13:18:02;7.20;99.90
17938;DHT22;16051;53.024;8.630;2022-12-07T13:22:44;7.20;99.90
17938;DHT22;16051;53.024;8.630;2022-12-07T13:26:55;7.20;99.90
17938;DHT22;16051;53.024;8.630;2022-12-07T13:31:09;7.30;99.90
17938;DHT22;16051;53.024;8.630;2022-12-07T13:35:29;7.20;99.90
17938;DHT22;16051;53.024;8.630;2022-12-07T13:39:35;7.00;99.90
17938;DHT22;16051;53.024;8.630;2022-12-07T13:43:50;6.90;99.90
17938;DHT22;16051;53.024;8.630;2022-12-07T13:47:56;6.90;99.90
17938;DHT22;16051;53.024;8.630;2022-12-07T13:52:15;6.80;99.90
17938;DHT22;16051;53.024;8.630;2022-12-07T13:56:35;6.80;99.90
17938;DHT22;16051;53.024;8.630;2022-12-07T14:00:40;6.90;99.90
17938;DHT22;16051;53.024;8.630;2022-12-07T14:04:43;6.80;99.90
17938;DHT22;16051;53.024;8.630;2022-12-07T14:08:46;6.80;99.90
17938;DHT22;16051;53.024;8.630;2022-12-07T14:12:49;6.70;99.90
17938;DHT22;16051;53.024;8.630;2022-12-07T14:17:01;6.60;99.90
17938;DHT22;16051;53.024;8.630;2022-12-07T14:21:18;6.50;99.90
17938;DHT22;16051;53.024;8.630;2022-12-07T14:25:24;6.40;99.90
17938;DHT22;16051;53.024;8.630;2022-12-07T14:29:33;6.30;99.90
17938;DHT22;16051;53.024;8.630;2022-12-07T14:33:35;6.20;99.90
17938;DHT22;16051;53.024;8.630;2022-12-07T14:37:39;6.20;99.90
17938;DHT22;16051;53.024;8.630;2022-12-07T14:41:43;6.20;99.90
17938;DHT22;16051;53.024;8.630;2022-12-07T14:45:55;6.00;99.90
17938;DHT22;16051;53.024;8.630;2022-12-07T14:49:57;5.80;99.90
17938;DHT22;16051;53.024;8.630;2022-12-07T14:54:00;5.60;99.90
17938;DHT22;16051;53.024;8.630;2022-12-07T14:58:02;5.50;99.90
17938;DHT22;16051;53.024;8.630;2022-12-07T15:02:06;5.40;99.90
17938;DHT22;16051;53.024;8.630;2022-12-07T15:06:14;5.40;99.90
17938;DHT22;16051;53.024;8.630;2022-12-07T15:10:22;5.40;99.90
17938;DHT22;16051;53.024;8.630;2022-12-07T15:14:29;5.30;99.90
17938;DHT22;16051;53.024;8.630;2022-12-07T15:18:33;5.30;99.90
17938;DHT22;16051;53.024;8.630;2022-12-07T15:22:35;5.30;99.90
17938;DHT22;16051;53.024;8.630;2022-12-07T15:26:38;5.20;99.90
17938;DHT22;16051;53.024;8.630;2022-12-07T15:30:41;5.10;99.90
17938;DHT22;16051;53.024;8.630;2022-12-07T15:34:46;5.10;99.90
17938;DHT22;16051;53.024;8.630;2022-12-07T15:38:48;5.00;99.90
17938;DHT22;16051;53.024;8.630;2022-12-07T15:42:51;5.00;99.90
17938;DHT22;16051;53.024;8.630;2022-12-07T15:46:53;4.90;99.90
17938;DHT22;16051;53.024;8.630;2022-12-07T15:51:03;4.80;99.90
17938;DHT22;16051;53.024;8.630;2022-12-07T15:55:07;4.70;99.90
17938;DHT22;16051;53.024;8.630;2022-12-07T15:59:10;4.70;99.90
17938;DHT22;16051;53.024;8.630;2022-12-07T16:03:12;4.70;99.90
17938;DHT22;16051;53.024;8.630;2022-12-07T16:07:15;4.70;99.90
17938;DHT22;16051;53.024;8.630;2022-12-07T16:11:18;4.60;99.90
17938;DHT22;16051;53.024;8.630;2022-12-07T16:15:21;4.60;99.90
17938;DHT22;16051;53.024;8.630;2022-12-07T16:19:25;4.60;99.90
17938;DHT22;16051;53.024;8.630;2022-12-07T16:23:28;4.50;99.90
17938;DHT22;16051;53.024;8.630;2022-12-07T16:27:31;4.50;99.90
17938;DHT22;16051;53.024;8.630;2022-12-07T16:31:33;4.40;99.90
17938;DHT22;16051;53.024;8.630;2022-12-07T16:35:38;4.50;99.90
17938;DHT22;16051;53.024;8.630;2022-12-07T16:39:42;4.50;99.90
17938;DHT22;16051;53.024;8.630;2022-12-07T16:43:44;4.50;99.90
17938;DHT22;16051;53.024;8.630;2022-12-07T16:47:47;4.50;99.90
17938;DHT22;16051;53.024;8.630;2022-12-07T16:51:49;4.60;99.90
17938;DHT22;16051;53.024;8.630;2022-12-07T16:55:53;4.60;99.90
17938;DHT22;16051;53.024;8.630;2022-12-07T16:59:55;4.60;99.90
17938;DHT22;16051;53.024;8.630;2022-12-07T17:03:58;4.60;99.90
17938;DHT22;16051;53.024;8.630;2022-12-07T17:08:02;4.60;99.90
17938;DHT22;16051;53.024;8.630;2022-12-07T17:12:06;4.60;99.90
17938;DHT22;16051;53.024;8.630;2022-12-07T17:16:08;4.70;99.90
17938;DHT22;16051;53.024;8.630;2022-12-07T17:20:11;4.70;99.90
17938;DHT22;16051;53.024;8.630;2022-12-07T17:24:15;4.70;99.90
17938;DHT22;16051;53.024;8.630;2022-12-07T17:28:19;4.70;99.90
17938;DHT22;16051;53.024;8.630;2022-12-07T17:32:21;4.60;99.90
17938;DHT22;16051;53.024;8.630;2022-12-07T17:36:26;4.70;99.90
17938;DHT22;16051;53.024;8.630;2022-12-07T17:40:29;4.60;99.90
17938;DHT22;16051;53.024;8.630;2022-12-07T17:44:59;4.70;99.90
17938;DHT22;16051;53.024;8.630;2022-12-07T17:49:08;4.70;99.90
17938;DHT22;16051;53.024;8.630;2022-12-07T17:53:10;4.70;99.90
17938;DHT22;16051;53.024;8.630;2022-12-07T17:57:13;4.70;99.90
17938;DHT22;16051;53.024;8.630;2022-12-07T18:01:23;4.70;99.90
17938;DHT22;16051;53.024;8.630;2022-12-07T18:05:25;4.70;99.90
17938;DHT22;16051;53.024;8.630;2022-12-07T18:09:27;4.70;99.90
17938;DHT22;16051;53.024;8.630;2022-12-07T18:13:29;4.70;99.90
17938;DHT22;16051;53.024;8.630;2022-12-07T18:17:39;4.60;99.90
17938;DHT22;16051;53.024;8.630;2022-12-07T18:21:42;4.60;99.90
17938;DHT22;16051;53.024;8.630;2022-12-07T18:25:46;4.60;99.90
17938;DHT22;16051;53.024;8.630;2022-12-07T18:29:49;4.60;99.90
17938;DHT22;16051;53.024;8.630;2022-12-07T18:33:53;4.60;99.90
17938;DHT22;16051;53.024;8.630;2022-12-07T18:38:00;4.60;99.90
17938;DHT22;16051;53.024;8.630;2022-12-07T18:42:02;4.50;99.90
17938;DHT22;16051;53.024;8.630;2022-12-07T18:46:10;4.40;99.90
17938;DHT22;16051;53.024;8.630;2022-12-07T18:50:14;4.40;99.90
17938;DHT22;16051;53.024;8.630;2022-12-07T18:54:17;4.30;99.90
17938;DHT22;16051;53.024;8.630;2022-12-07T18:58:20;4.40;99.90
17938;DHT22;16051;53.024;8.630;2022-12-07T19:02:22;4.40;99.90
17938;DHT22;16051;53.024;8.630;2022-12-07T19:06:25;4.30;99.90
17938;DHT22;16051;53.024;8.630;2022-12-07T19:10:27;4.30;99.90
17938;DHT22;16051;53.024;8.630;2022-12-07T19:14:31;4.20;99.90
17938;DHT22;16051;53.024;8.630;2022-12-07T19:18:39;4.20;99.90
17938;DHT22;16051;53.024;8.630;2022-12-07T19:22:51;4.20;99.90
17938;DHT22;16051;53.024;8.630;2022-12-07T19:26:53;4.30;99.90
17938;DHT22;16051;53.024;8.630;2022-12-07T19:31:17;4.20;99.90
17938;DHT22;16051;53.024;8.630;2022-12-07T19:35:19;4.20;99.90
17938;DHT22;16051;53.024;8.630;2022-12-07T19:39:22;4.20;99.90
17938;DHT22;16051;53.024;8.630;2022-12-07T19:43:25;4.20;99.90
17938;DHT22;16051;53.024;8.630;2022-12-07T19:47:28;4.20;99.90
17938;DHT22;16051;53.024;8.630;2022-12-07T19:51:30;4.20;99.90
17938;DHT22;16051;53.024;8.630;2022-12-07T19:55:38;4.20;99.90
17938;DHT22;16051;53.024;8.630;2022-12-07T19:59:53;4.20;99.90
17938;DHT22;16051;53.024;8.630;2022-12-07T20:04:09;4.10;99.90
17938;DHT22;16051;53.024;8.630;2022-12-07T20:08:12;4.10;99.90
17938;DHT22;16051;53.024;8.630;2022-12-07T20:12:24;4.10;99.90
17938;DHT22;16051;53.024;8.630;2022-12-07T20:16:43;4.20;99.90
17938;DHT22;16051;53.024;8.630;2022-12-07T20:20:52;4.10;99.90
17938;DHT22;16051;53.024;8.630;2022-12-07T20:24:55;4.10;99.90
17938;DHT22;16051;53.024;8.630;2022-12-07T20:28:59;4.10;99.90
17938;DHT22;16051;53.024;8.630;2022-12-07T20:33:01;4.10;99.90
17938;DHT22;16051;53.024;8.630;2022-12-07T20:37:04;4.10;99.90
17938;DHT22;16051;53.024;8.630;2022-12-07T20:41:08;4.10;99.90
17938;DHT22;16051;53.024;8.630;2022-12-07T20:45:32;4.10;99.90
17938;DHT22;16051;53.024;8.630;2022-12-07T20:49:37;4.10;99.90
17938;DHT22;16051;53.024;8.630;2022-12-07T20:53:39;4.10;99.90
17938;DHT22;16051;53.024;8.630;2022-12-07T20:57:41;4.10;99.90
17938;DHT22;16051;53.024;8.630;2022-12-07T21:01:44;4.10;99.90
17938;DHT22;16051;53.024;8.630;2022-12-07T21:05:46;4.10;99.90
17938;DHT22;16051;53.024;8.630;2022-12-07T21:09:49;4.10;99.90
17938;DHT22;16051;53.024;8.630;2022-12-07T21:13:56;4.10;99.90
17938;DHT22;16051;53.024;8.630;2022-12-07T21:18:00;4.10;99.90
17938;DHT22;16051;53.024;8.630;2022-12-07T21:22:02;4.10;99.90
17938;DHT22;16051;53.024;8.630;2022-12-07T21:26:09;4.20;99.90
17938;DHT22;16051;53.024;8.630;2022-12-07T21:30:12;4.20;99.90
17938;DHT22;16051;53.024;8.630;2022-12-07T21:34:15;4.20;99.90
17938;DHT22;16051;53.024;8.630;2022-12-07T21:38:17;4.10;99.90
17938;DHT22;16051;53.024;8.630;2022-12-07T21:42:20;4.10;99.90
17938;DHT22;16051;53.024;8.630;2022-12-07T21:46:23;4.10;99.90
17938;DHT22;16051;53.024;8.630;2022-12-07T21:50:28;4.10;99.90
17938;DHT22;16051;53.024;8.630;2022-12-07T21:54:31;4.10;99.90
17938;DHT22;16051;53.024;8.630;2022-12-07T21:58:33;4.10;99.90
17938;DHT22;16051;53.024;8.630;2022-12-07T22:02:44;4.10;99.90
17938;DHT22;16051;53.024;8.630;2022-12-07T22:06:49;4.20;99.90
17938;DHT22;16051;53.024;8.630;2022-12-07T22:10:52;4.10;99.90
17938;DHT22;16051;53.024;8.630;2022-12-07T22:14:54;4.00;99.90
17938;DHT22;16051;53.024;8.630;2022-12-07T22:19:09;4.00;99.90
17938;DHT22;16051;53.024;8.630;2022-12-07T22:23:25;3.90;99.90
17938;DHT22;16051;53.024;8.630;2022-12-07T22:27:27;3.90;99.90
17938;DHT22;16051;53.024;8.630;2022-12-07T22:31:29;4.00;99.90
17938;DHT22;16051;53.024;8.630;2022-12-07T22:35:31;3.90;99.90
17938;DHT22;16051;53.024;8.630;2022-12-07T22:39:41;3.90;99.90
17938;DHT22;16051;53.024;8.630;2022-12-07T22:43:43;3.90;99.90
17938;DHT22;16051;53.024;8.630;2022-12-07T22:47:46;3.80;99.90
17938;DHT22;16051;53.024;8.630;2022-12-07T22:51:48;3.90;99.90
17938;DHT22;16051;53.024;8.630;2022-12-07T22:55:51;3.80;99.90
17938;DHT22;16051;53.024;8.630;2022-12-07T23:00:08;3.80;99.90
17938;DHT22;16051;53.024;8.630;2022-12-07T23:04:11;3.80;99.90
17938;DHT22;16051;53.024;8.630;2022-12-07T23:08:13;3.80;99.90
17938;DHT22;16051;53.024;8.630;2022-12-07T23:12:17;3.80;99.90
17938;DHT22;16051;53.024;8.630;2022-12-07T23:16:38;3.90;99.90
17938;DHT22;16051;53.024;8.630;2022-12-07T23:20:55;3.90;99.90
17938;DHT22;16051;53.024;8.630;2022-12-07T23:24:58;3.90;99.90
17938;DHT22;16051;53.024;8.630;2022-12-07T23:29:01;3.90;99.90
17938;DHT22;16051;53.024;8.630;2022-12-07T23:33:03;3.90;99.90
17938;DHT22;16051;53.024;8.630;2022-12-07T23:37:05;3.90;99.90
17938;DHT22;16051;53.024;8.630;2022-12-07T23:41:10;3.80;99.90
17938;DHT22;16051;53.024;8.630;2022-12-07T23:45:15;3.80;99.90
17938;DHT22;16051;53.024;8.630;2022-12-07T23:49:17;3.80;99.90
17938;DHT22;16051;53.024;8.630;2022-12-07T23:53:19;3.80;99.90
17938;DHT22;16051;53.024;8.630;2022-12-07T23:57:28;3.80;99.90
